sensor_id;sensor_type;location;lat;lon;timestamp;P1;durP1;ratioP1;P2;durP2;ratioP2
17347;SDS011;8791;50.876;4.342;2023-02-15T00:01:26;82.20;;;37.37;;
17347;SDS011;8791;50.876;4.342;2023-02-15T00:03:53;83.60;;;37.90;;
17347;SDS011;8791;50.876;4.342;2023-02-15T00:06:20;86.53;;;39.00;;
17347;SDS011;8791;50.876;4.342;2023-02-15T00:08:47;91.03;;;37.50;;
17347;SDS011;8791;50.876;4.342;2023-02-15T00:11:14;92.33;;;38.17;;
17347;SDS011;8791;50.876;4.342;2023-02-15T00:14:03;78.53;;;36.87;;
17347;SDS011;8791;50.876;4.342;2023-02-15T00:16:31;95.27;;;36.80;;
17347;SDS011;8791;50.876;4.342;2023-02-15T00:18:58;81.97;;;36.87;;
17347;SDS011;8791;50.876;4.342;2023-02-15T00:21:26;92.07;;;37.43;;
17347;SDS011;8791;50.876;4.342;2023-02-15T00:23:54;83.70;;;36.97;;
17347;SDS011;8791;50.876;4.342;2023-02-15T00:26:20;80.40;;;38.20;;
17347;SDS011;8791;50.876;4.342;2023-02-15T00:28:47;86.33;;;37.77;;
17347;SDS011;8791;50.876;4.342;2023-02-15T00:31:14;85.63;;;37.00;;
17347;SDS011;8791;50.876;4.342;2023-02-15T00:33:42;88.57;;;41.50;;
17347;SDS011;8791;50.876;4.342;2023-02-15T00:36:09;92.53;;;39.50;;
17347;SDS011;8791;50.876;4.342;2023-02-15T00:38:36;91.00;;;40.30;;
17347;SDS011;8791;50.876;4.342;2023-02-15T00:41:04;93.73;;;42.13;;
17347;SDS011;8791;50.876;4.342;2023-02-15T00:43:32;91.50;;;41.37;;
17347;SDS011;8791;50.876;4.342;2023-02-15T00:46:00;96.17;;;41.27;;
17347;SDS011;8791;50.876;4.342;2023-02-15T00:48:28;86.43;;;41.27;;
17347;SDS011;8791;50.876;4.342;2023-02-15T00:50:57;86.13;;;41.67;;
17347;SDS011;8791;50.876;4.342;2023-02-15T00:53:25;88.23;;;42.07;;
17347;SDS011;8791;50.876;4.342;2023-02-15T00:55:53;86.97;;;40.97;;
17347;SDS011;8791;50.876;4.342;2023-02-15T00:58:20;104.33;;;41.93;;
17347;SDS011;8791;50.876;4.342;2023-02-15T01:00:47;88.00;;;40.90;;
17347;SDS011;8791;50.876;4.342;2023-02-15T01:03:15;92.30;;;41.27;;
17347;SDS011;8791;50.876;4.342;2023-02-15T01:05:43;89.10;;;40.43;;
17347;SDS011;8791;50.876;4.342;2023-02-15T01:08:11;87.50;;;39.40;;
17347;SDS011;8791;50.876;4.342;2023-02-15T01:10:38;93.70;;;41.00;;
17347;SDS011;8791;50.876;4.342;2023-02-15T01:13:05;86.30;;;38.73;;
17347;SDS011;8791;50.876;4.342;2023-02-15T01:15:33;84.63;;;38.87;;
17347;SDS011;8791;50.876;4.342;2023-02-15T01:18:00;92.63;;;39.70;;
17347;SDS011;8791;50.876;4.342;2023-02-15T01:20:28;92.00;;;40.07;;
17347;SDS011;8791;50.876;4.342;2023-02-15T01:22:57;95.70;;;39.63;;
17347;SDS011;8791;50.876;4.342;2023-02-15T01:25:25;91.27;;;40.57;;
17347;SDS011;8791;50.876;4.342;2023-02-15T01:27:52;85.63;;;39.13;;
17347;SDS011;8791;50.876;4.342;2023-02-15T01:30:19;80.33;;;38.17;;
17347;SDS011;8791;50.876;4.342;2023-02-15T01:32:46;87.17;;;37.00;;
17347;SDS011;8791;50.876;4.342;2023-02-15T01:35:13;91.17;;;36.27;;
17347;SDS011;8791;50.876;4.342;2023-02-15T01:37:39;87.83;;;36.47;;
17347;SDS011;8791;50.876;4.342;2023-02-15T01:40:07;81.70;;;37.93;;
17347;SDS011;8791;50.876;4.342;2023-02-15T01:42:39;78.87;;;36.27;;
17347;SDS011;8791;50.876;4.342;2023-02-15T01:45:13;76.33;;;35.37;;
17347;SDS011;8791;50.876;4.342;2023-02-15T01:47:47;87.17;;;35.93;;
17347;SDS011;8791;50.876;4.342;2023-02-15T01:50:21;84.83;;;36.07;;
17347;SDS011;8791;50.876;4.342;2023-02-15T01:52:52;83.80;;;35.83;;
17347;SDS011;8791;50.876;4.342;2023-02-15T01:55:23;79.43;;;36.80;;
17347;SDS011;8791;50.876;4.342;2023-02-15T01:57:56;81.77;;;37.60;;
17347;SDS011;8791;50.876;4.342;2023-02-15T02:00:23;89.47;;;36.57;;
17347;SDS011;8791;50.876;4.342;2023-02-15T02:02:51;81.03;;;38.83;;
17347;SDS011;8791;50.876;4.342;2023-02-15T02:05:21;78.57;;;37.07;;
17347;SDS011;8791;50.876;4.342;2023-02-15T02:07:48;77.97;;;35.90;;
17347;SDS011;8791;50.876;4.342;2023-02-15T02:10:19;85.67;;;36.53;;
17347;SDS011;8791;50.876;4.342;2023-02-15T02:12:49;84.03;;;38.40;;
17347;SDS011;8791;50.876;4.342;2023-02-15T02:15:20;86.53;;;38.93;;
17347;SDS011;8791;50.876;4.342;2023-02-15T02:17:54;90.10;;;38.20;;
17347;SDS011;8791;50.876;4.342;2023-02-15T02:20:30;78.10;;;36.53;;
17347;SDS011;8791;50.876;4.342;2023-02-15T02:23:38;81.53;;;36.63;;
17347;SDS011;8791;50.876;4.342;2023-02-15T02:29:28;86.33;;;37.10;;
17347;SDS011;8791;50.876;4.342;2023-02-15T02:32:31;80.87;;;36.13;;
17347;SDS011;8791;50.876;4.342;2023-02-15T02:35:14;88.57;;;38.10;;
17347;SDS011;8791;50.876;4.342;2023-02-15T02:37:49;82.13;;;37.07;;
17347;SDS011;8791;50.876;4.342;2023-02-15T02:40:24;82.50;;;37.40;;
17347;SDS011;8791;50.876;4.342;2023-02-15T02:42:59;81.63;;;36.83;;
17347;SDS011;8791;50.876;4.342;2023-02-15T02:45:29;88.57;;;38.17;;
17347;SDS011;8791;50.876;4.342;2023-02-15T02:48:02;78.73;;;36.83;;
17347;SDS011;8791;50.876;4.342;2023-02-15T02:50:35;80.73;;;38.20;;
17347;SDS011;8791;50.876;4.342;2023-02-15T02:53:04;88.10;;;38.17;;
17347;SDS011;8791;50.876;4.342;2023-02-15T02:55:33;86.27;;;37.93;;
17347;SDS011;8791;50.876;4.342;2023-02-15T02:58:08;80.13;;;36.63;;
17347;SDS011;8791;50.876;4.342;2023-02-15T03:00:41;81.67;;;37.43;;
17347;SDS011;8791;50.876;4.342;2023-02-15T03:03:12;81.53;;;35.40;;
17347;SDS011;8791;50.876;4.342;2023-02-15T03:05:43;84.60;;;38.37;;
17347;SDS011;8791;50.876;4.342;2023-02-15T03:08:13;76.17;;;36.07;;
17347;SDS011;8791;50.876;4.342;2023-02-15T03:10:47;83.77;;;37.70;;
17347;SDS011;8791;50.876;4.342;2023-02-15T03:13:15;86.63;;;38.03;;
17347;SDS011;8791;50.876;4.342;2023-02-15T03:15:43;87.10;;;37.57;;
17347;SDS011;8791;50.876;4.342;2023-02-15T03:18:30;85.17;;;38.23;;
17347;SDS011;8791;50.876;4.342;2023-02-15T03:21:03;80.80;;;38.57;;
17347;SDS011;8791;50.876;4.342;2023-02-15T03:23:33;81.83;;;36.53;;
17347;SDS011;8791;50.876;4.342;2023-02-15T03:26:03;76.33;;;36.03;;
17347;SDS011;8791;50.876;4.342;2023-02-15T03:28:35;85.03;;;37.03;;
17347;SDS011;8791;50.876;4.342;2023-02-15T03:31:07;82.67;;;37.13;;
17347;SDS011;8791;50.876;4.342;2023-02-15T03:33:37;92.93;;;38.77;;
17347;SDS011;8791;50.876;4.342;2023-02-15T03:36:14;93.03;;;37.43;;
17347;SDS011;8791;50.876;4.342;2023-02-15T03:38:47;88.60;;;37.63;;
17347;SDS011;8791;50.876;4.342;2023-02-15T03:41:19;77.13;;;36.57;;
17347;SDS011;8791;50.876;4.342;2023-02-15T03:43:51;85.40;;;37.00;;
17347;SDS011;8791;50.876;4.342;2023-02-15T03:46:21;92.87;;;38.67;;
17347;SDS011;8791;50.876;4.342;2023-02-15T03:48:53;82.40;;;36.30;;
17347;SDS011;8791;50.876;4.342;2023-02-15T03:51:25;81.83;;;35.30;;
17347;SDS011;8791;50.876;4.342;2023-02-15T03:54:03;85.53;;;36.80;;
17347;SDS011;8791;50.876;4.342;2023-02-15T03:56:33;90.87;;;37.73;;
17347;SDS011;8791;50.876;4.342;2023-02-15T03:59:02;81.00;;;35.33;;
17347;SDS011;8791;50.876;4.342;2023-02-15T04:01:48;71.63;;;35.73;;
17347;SDS011;8791;50.876;4.342;2023-02-15T04:04:29;87.27;;;35.97;;
17347;SDS011;8791;50.876;4.342;2023-02-15T04:07:01;87.83;;;35.30;;
17347;SDS011;8791;50.876;4.342;2023-02-15T04:09:30;76.50;;;36.47;;
17347;SDS011;8791;50.876;4.342;2023-02-15T04:12:15;77.40;;;35.57;;
17347;SDS011;8791;50.876;4.342;2023-02-15T04:14:42;82.70;;;36.00;;
17347;SDS011;8791;50.876;4.342;2023-02-15T04:17:26;73.57;;;34.40;;
17347;SDS011;8791;50.876;4.342;2023-02-15T04:19:53;75.47;;;35.53;;
17347;SDS011;8791;50.876;4.342;2023-02-15T04:22:39;79.87;;;35.77;;
17347;SDS011;8791;50.876;4.342;2023-02-15T04:25:24;76.33;;;35.20;;
17347;SDS011;8791;50.876;4.342;2023-02-15T04:27:51;76.27;;;34.33;;
17347;SDS011;8791;50.876;4.342;2023-02-15T04:30:21;82.50;;;34.93;;
17347;SDS011;8791;50.876;4.342;2023-02-15T04:32:50;71.80;;;34.03;;
17347;SDS011;8791;50.876;4.342;2023-02-15T04:35:17;73.50;;;32.97;;
17347;SDS011;8791;50.876;4.342;2023-02-15T04:37:46;75.83;;;34.73;;
17347;SDS011;8791;50.876;4.342;2023-02-15T04:40:13;73.87;;;34.87;;
17347;SDS011;8791;50.876;4.342;2023-02-15T04:42:41;72.73;;;35.57;;
17347;SDS011;8791;50.876;4.342;2023-02-15T04:45:08;79.47;;;36.13;;
17347;SDS011;8791;50.876;4.342;2023-02-15T04:47:35;81.00;;;35.27;;
17347;SDS011;8791;50.876;4.342;2023-02-15T04:50:02;79.27;;;34.90;;
17347;SDS011;8791;50.876;4.342;2023-02-15T04:52:29;72.93;;;35.20;;
17347;SDS011;8791;50.876;4.342;2023-02-15T04:54:58;72.00;;;35.00;;
17347;SDS011;8791;50.876;4.342;2023-02-15T04:57:24;77.13;;;35.70;;
17347;SDS011;8791;50.876;4.342;2023-02-15T04:59:51;81.17;;;35.43;;
17347;SDS011;8791;50.876;4.342;2023-02-15T05:02:18;85.57;;;35.63;;
17347;SDS011;8791;50.876;4.342;2023-02-15T05:04:45;82.10;;;36.17;;
17347;SDS011;8791;50.876;4.342;2023-02-15T05:07:12;79.63;;;34.73;;
17347;SDS011;8791;50.876;4.342;2023-02-15T05:09:39;73.07;;;33.57;;
17347;SDS011;8791;50.876;4.342;2023-02-15T05:12:07;72.13;;;33.43;;
17347;SDS011;8791;50.876;4.342;2023-02-15T05:14:34;79.27;;;34.27;;
17347;SDS011;8791;50.876;4.342;2023-02-15T05:17:01;81.37;;;34.13;;
17347;SDS011;8791;50.876;4.342;2023-02-15T05:19:30;80.07;;;34.23;;
17347;SDS011;8791;50.876;4.342;2023-02-15T05:21:57;80.13;;;35.27;;
17347;SDS011;8791;50.876;4.342;2023-02-15T05:24:24;71.77;;;33.03;;
17347;SDS011;8791;50.876;4.342;2023-02-15T05:27:11;76.63;;;34.43;;
17347;SDS011;8791;50.876;4.342;2023-02-15T05:29:56;74.90;;;32.50;;
17347;SDS011;8791;50.876;4.342;2023-02-15T05:32:22;73.63;;;32.60;;
17347;SDS011;8791;50.876;4.342;2023-02-15T05:34:49;81.30;;;34.63;;
17347;SDS011;8791;50.876;4.342;2023-02-15T05:37:16;77.77;;;33.20;;
17347;SDS011;8791;50.876;4.342;2023-02-15T05:39:43;78.20;;;34.63;;
17347;SDS011;8791;50.876;4.342;2023-02-15T05:42:11;80.57;;;34.03;;
17347;SDS011;8791;50.876;4.342;2023-02-15T05:44:38;86.20;;;33.87;;
17347;SDS011;8791;50.876;4.342;2023-02-15T05:47:05;77.33;;;33.90;;
17347;SDS011;8791;50.876;4.342;2023-02-15T05:49:32;79.13;;;34.40;;
17347;SDS011;8791;50.876;4.342;2023-02-15T05:51:59;77.93;;;33.50;;
17347;SDS011;8791;50.876;4.342;2023-02-15T05:54:26;78.83;;;33.73;;
17347;SDS011;8791;50.876;4.342;2023-02-15T05:56:53;82.00;;;34.83;;
17347;SDS011;8791;50.876;4.342;2023-02-15T05:59:21;85.37;;;34.30;;
17347;SDS011;8791;50.876;4.342;2023-02-15T06:01:48;84.00;;;34.03;;
17347;SDS011;8791;50.876;4.342;2023-02-15T06:04:15;67.67;;;33.30;;
17347;SDS011;8791;50.876;4.342;2023-02-15T06:06:42;81.00;;;35.03;;
17347;SDS011;8791;50.876;4.342;2023-02-15T06:09:09;74.17;;;31.80;;
17347;SDS011;8791;50.876;4.342;2023-02-15T06:11:36;72.43;;;32.23;;
17347;SDS011;8791;50.876;4.342;2023-02-15T06:14:03;75.33;;;32.73;;
17347;SDS011;8791;50.876;4.342;2023-02-15T06:16:32;72.70;;;31.07;;
17347;SDS011;8791;50.876;4.342;2023-02-15T06:18:58;61.37;;;30.30;;
17347;SDS011;8791;50.876;4.342;2023-02-15T06:21:26;72.07;;;32.63;;
17347;SDS011;8791;50.876;4.342;2023-02-15T06:23:53;79.80;;;34.13;;
17347;SDS011;8791;50.876;4.342;2023-02-15T06:26:20;71.80;;;32.43;;
17347;SDS011;8791;50.876;4.342;2023-02-15T06:28:47;74.90;;;32.80;;
17347;SDS011;8791;50.876;4.342;2023-02-15T06:31:14;71.47;;;32.43;;
17347;SDS011;8791;50.876;4.342;2023-02-15T06:33:42;77.10;;;34.50;;
17347;SDS011;8791;50.876;4.342;2023-02-15T06:36:09;67.23;;;32.53;;
17347;SDS011;8791;50.876;4.342;2023-02-15T06:38:36;81.00;;;33.40;;
17347;SDS011;8791;50.876;4.342;2023-02-15T06:41:02;74.23;;;32.00;;
17347;SDS011;8791;50.876;4.342;2023-02-15T06:43:29;75.13;;;31.90;;
17347;SDS011;8791;50.876;4.342;2023-02-15T06:45:56;76.07;;;32.50;;
17347;SDS011;8791;50.876;4.342;2023-02-15T06:48:23;73.67;;;32.33;;
17347;SDS011;8791;50.876;4.342;2023-02-15T06:50:51;80.43;;;32.43;;
17347;SDS011;8791;50.876;4.342;2023-02-15T06:53:18;74.27;;;31.57;;
17347;SDS011;8791;50.876;4.342;2023-02-15T06:55:44;69.37;;;32.33;;
17347;SDS011;8791;50.876;4.342;2023-02-15T06:58:11;68.50;;;30.27;;
17347;SDS011;8791;50.876;4.342;2023-02-15T07:00:38;69.67;;;32.50;;
17347;SDS011;8791;50.876;4.342;2023-02-15T07:03:06;75.87;;;30.47;;
17347;SDS011;8791;50.876;4.342;2023-02-15T07:05:33;71.77;;;30.00;;
17347;SDS011;8791;50.876;4.342;2023-02-15T07:08:02;60.20;;;29.23;;
17347;SDS011;8791;50.876;4.342;2023-02-15T07:10:29;67.83;;;30.33;;
17347;SDS011;8791;50.876;4.342;2023-02-15T07:12:56;71.67;;;30.50;;
17347;SDS011;8791;50.876;4.342;2023-02-15T07:15:21;69.53;;;30.63;;
17347;SDS011;8791;50.876;4.342;2023-02-15T07:17:48;76.13;;;32.90;;
17347;SDS011;8791;50.876;4.342;2023-02-15T07:20:17;66.23;;;31.90;;
17347;SDS011;8791;50.876;4.342;2023-02-15T07:22:45;70.43;;;32.30;;
17347;SDS011;8791;50.876;4.342;2023-02-15T07:25:13;73.23;;;32.83;;
17347;SDS011;8791;50.876;4.342;2023-02-15T07:27:41;73.03;;;33.27;;
17347;SDS011;8791;50.876;4.342;2023-02-15T07:30:10;67.90;;;34.23;;
17347;SDS011;8791;50.876;4.342;2023-02-15T07:32:39;73.13;;;33.03;;
17347;SDS011;8791;50.876;4.342;2023-02-15T07:35:26;78.00;;;33.20;;
17347;SDS011;8791;50.876;4.342;2023-02-15T07:37:53;60.90;;;28.77;;
17347;SDS011;8791;50.876;4.342;2023-02-15T07:40:22;84.30;;;34.23;;
17347;SDS011;8791;50.876;4.342;2023-02-15T07:42:49;70.53;;;32.17;;
17347;SDS011;8791;50.876;4.342;2023-02-15T07:45:18;75.10;;;32.60;;
17347;SDS011;8791;50.876;4.342;2023-02-15T07:47:44;71.37;;;32.37;;
17347;SDS011;8791;50.876;4.342;2023-02-15T07:50:11;71.53;;;32.60;;
17347;SDS011;8791;50.876;4.342;2023-02-15T07:52:38;73.77;;;33.07;;
17347;SDS011;8791;50.876;4.342;2023-02-15T07:55:05;71.27;;;32.40;;
17347;SDS011;8791;50.876;4.342;2023-02-15T07:57:35;85.07;;;31.67;;
17347;SDS011;8791;50.876;4.342;2023-02-15T08:00:02;75.57;;;33.13;;
17347;SDS011;8791;50.876;4.342;2023-02-15T08:02:29;85.23;;;36.20;;
17347;SDS011;8791;50.876;4.342;2023-02-15T08:04:56;71.13;;;32.20;;
17347;SDS011;8791;50.876;4.342;2023-02-15T08:07:23;69.60;;;32.27;;
17347;SDS011;8791;50.876;4.342;2023-02-15T08:09:50;71.17;;;30.73;;
17347;SDS011;8791;50.876;4.342;2023-02-15T08:12:16;66.13;;;30.47;;
17347;SDS011;8791;50.876;4.342;2023-02-15T08:14:44;68.27;;;32.33;;
17347;SDS011;8791;50.876;4.342;2023-02-15T08:17:11;70.83;;;30.37;;
17347;SDS011;8791;50.876;4.342;2023-02-15T08:19:38;73.13;;;29.73;;
17347;SDS011;8791;50.876;4.342;2023-02-15T08:22:05;76.57;;;30.57;;
17347;SDS011;8791;50.876;4.342;2023-02-15T08:24:35;76.60;;;29.83;;
17347;SDS011;8791;50.876;4.342;2023-02-15T08:27:03;74.03;;;31.17;;
17347;SDS011;8791;50.876;4.342;2023-02-15T08:29:31;68.30;;;29.23;;
17347;SDS011;8791;50.876;4.342;2023-02-15T08:32:01;76.77;;;30.70;;
17347;SDS011;8791;50.876;4.342;2023-02-15T08:34:30;94.10;;;32.73;;
17347;SDS011;8791;50.876;4.342;2023-02-15T08:36:59;67.37;;;29.50;;
17347;SDS011;8791;50.876;4.342;2023-02-15T08:39:26;59.67;;;26.97;;
17347;SDS011;8791;50.876;4.342;2023-02-15T08:41:53;65.30;;;27.57;;
17347;SDS011;8791;50.876;4.342;2023-02-15T08:44:20;67.00;;;28.43;;
17347;SDS011;8791;50.876;4.342;2023-02-15T08:46:48;75.80;;;29.67;;
17347;SDS011;8791;50.876;4.342;2023-02-15T08:49:17;66.80;;;28.00;;
17347;SDS011;8791;50.876;4.342;2023-02-15T08:51:45;61.30;;;26.43;;
17347;SDS011;8791;50.876;4.342;2023-02-15T08:54:13;61.00;;;27.93;;
17347;SDS011;8791;50.876;4.342;2023-02-15T08:56:42;62.77;;;26.87;;
17347;SDS011;8791;50.876;4.342;2023-02-15T08:59:11;60.07;;;27.03;;
17347;SDS011;8791;50.876;4.342;2023-02-15T09:01:40;54.47;;;25.63;;
17347;SDS011;8791;50.876;4.342;2023-02-15T09:04:07;51.97;;;24.40;;
17347;SDS011;8791;50.876;4.342;2023-02-15T09:06:36;59.30;;;26.50;;
17347;SDS011;8791;50.876;4.342;2023-02-15T09:09:04;64.30;;;26.00;;
17347;SDS011;8791;50.876;4.342;2023-02-15T09:11:33;52.13;;;24.63;;
17347;SDS011;8791;50.876;4.342;2023-02-15T09:14:02;58.13;;;25.53;;
17347;SDS011;8791;50.876;4.342;2023-02-15T09:16:31;53.53;;;22.83;;
17347;SDS011;8791;50.876;4.342;2023-02-15T09:18:59;52.40;;;22.97;;
17347;SDS011;8791;50.876;4.342;2023-02-15T09:21:27;61.63;;;24.30;;
17347;SDS011;8791;50.876;4.342;2023-02-15T09:23:57;51.47;;;24.47;;
17347;SDS011;8791;50.876;4.342;2023-02-15T09:26:26;56.43;;;25.50;;
17347;SDS011;8791;50.876;4.342;2023-02-15T09:28:55;47.37;;;22.77;;
17347;SDS011;8791;50.876;4.342;2023-02-15T09:31:25;51.30;;;24.13;;
17347;SDS011;8791;50.876;4.342;2023-02-15T09:33:53;49.30;;;23.50;;
17347;SDS011;8791;50.876;4.342;2023-02-15T09:36:22;49.70;;;23.53;;
17347;SDS011;8791;50.876;4.342;2023-02-15T09:38:52;56.27;;;23.10;;
17347;SDS011;8791;50.876;4.342;2023-02-15T09:41:36;48.93;;;23.40;;
17347;SDS011;8791;50.876;4.342;2023-02-15T09:44:25;50.57;;;22.60;;
17347;SDS011;8791;50.876;4.342;2023-02-15T09:47:04;48.60;;;22.60;;
17347;SDS011;8791;50.876;4.342;2023-02-15T09:49:45;58.13;;;23.20;;
17347;SDS011;8791;50.876;4.342;2023-02-15T09:52:30;57.07;;;23.33;;
17347;SDS011;8791;50.876;4.342;2023-02-15T09:55:10;54.60;;;23.27;;
17347;SDS011;8791;50.876;4.342;2023-02-15T09:57:48;55.33;;;23.10;;
17347;SDS011;8791;50.876;4.342;2023-02-15T10:00:24;43.93;;;21.93;;
17347;SDS011;8791;50.876;4.342;2023-02-15T10:03:04;46.20;;;21.50;;
17347;SDS011;8791;50.876;4.342;2023-02-15T10:05:56;56.47;;;23.47;;
17347;SDS011;8791;50.876;4.342;2023-02-15T10:11:32;47.13;;;20.80;;
17347;SDS011;8791;50.876;4.342;2023-02-15T10:17:15;48.97;;;21.17;;
17347;SDS011;8791;50.876;4.342;2023-02-15T10:19:56;44.40;;;21.47;;
17347;SDS011;8791;50.876;4.342;2023-02-15T10:22:37;47.73;;;22.10;;
17347;SDS011;8791;50.876;4.342;2023-02-15T10:28:03;42.10;;;20.40;;
17347;SDS011;8791;50.876;4.342;2023-02-15T10:30:34;44.37;;;21.07;;
17347;SDS011;8791;50.876;4.342;2023-02-15T10:33:09;55.83;;;22.73;;
17347;SDS011;8791;50.876;4.342;2023-02-15T10:35:44;43.57;;;21.30;;
17347;SDS011;8791;50.876;4.342;2023-02-15T10:38:21;58.00;;;22.17;;
17347;SDS011;8791;50.876;4.342;2023-02-15T10:40:57;47.57;;;20.70;;
17347;SDS011;8791;50.876;4.342;2023-02-15T10:46:32;49.70;;;22.27;;
17347;SDS011;8791;50.876;4.342;2023-02-15T10:49:21;51.77;;;22.57;;
17347;SDS011;8791;50.876;4.342;2023-02-15T10:51:59;55.17;;;22.60;;
17347;SDS011;8791;50.876;4.342;2023-02-15T10:54:41;50.27;;;21.13;;
17347;SDS011;8791;50.876;4.342;2023-02-15T10:57:16;51.70;;;22.67;;
17347;SDS011;8791;50.876;4.342;2023-02-15T11:02:41;43.13;;;21.17;;
17347;SDS011;8791;50.876;4.342;2023-02-15T11:05:29;49.10;;;22.93;;
17347;SDS011;8791;50.876;4.342;2023-02-15T11:08:06;49.33;;;22.70;;
17347;SDS011;8791;50.876;4.342;2023-02-15T11:10:36;48.17;;;23.27;;
17347;SDS011;8791;50.876;4.342;2023-02-15T11:13:09;47.07;;;22.37;;
17347;SDS011;8791;50.876;4.342;2023-02-15T11:15:39;48.67;;;22.57;;
17347;SDS011;8791;50.876;4.342;2023-02-15T11:18:11;53.53;;;22.53;;
17347;SDS011;8791;50.876;4.342;2023-02-15T11:20:45;47.37;;;22.43;;
17347;SDS011;8791;50.876;4.342;2023-02-15T11:23:19;45.33;;;22.23;;
17347;SDS011;8791;50.876;4.342;2023-02-15T11:25:48;46.83;;;22.93;;
17347;SDS011;8791;50.876;4.342;2023-02-15T11:28:23;46.00;;;22.63;;
17347;SDS011;8791;50.876;4.342;2023-02-15T11:30:54;57.30;;;23.83;;
17347;SDS011;8791;50.876;4.342;2023-02-15T11:33:25;43.47;;;22.50;;
17347;SDS011;8791;50.876;4.342;2023-02-15T11:35:58;43.07;;;22.37;;
17347;SDS011;8791;50.876;4.342;2023-02-15T11:38:31;52.63;;;24.50;;
17347;SDS011;8791;50.876;4.342;2023-02-15T11:40:59;48.83;;;23.17;;
17347;SDS011;8791;50.876;4.342;2023-02-15T11:43:31;54.67;;;24.87;;
17347;SDS011;8791;50.876;4.342;2023-02-15T11:46:02;53.87;;;25.27;;
17347;SDS011;8791;50.876;4.342;2023-02-15T11:48:31;50.90;;;23.97;;
17347;SDS011;8791;50.876;4.342;2023-02-15T11:50:58;45.00;;;23.03;;
17347;SDS011;8791;50.876;4.342;2023-02-15T11:53:26;54.93;;;24.57;;
17347;SDS011;8791;50.876;4.342;2023-02-15T11:55:57;51.17;;;24.33;;
17347;SDS011;8791;50.876;4.342;2023-02-15T11:58:26;48.90;;;24.27;;
17347;SDS011;8791;50.876;4.342;2023-02-15T12:01:00;52.33;;;24.70;;
17347;SDS011;8791;50.876;4.342;2023-02-15T12:03:42;48.97;;;24.47;;
17347;SDS011;8791;50.876;4.342;2023-02-15T12:06:15;52.90;;;25.57;;
17347;SDS011;8791;50.876;4.342;2023-02-15T12:08:51;51.90;;;25.17;;
17347;SDS011;8791;50.876;4.342;2023-02-15T12:11:25;58.03;;;25.23;;
17347;SDS011;8791;50.876;4.342;2023-02-15T12:13:59;52.27;;;25.53;;
17347;SDS011;8791;50.876;4.342;2023-02-15T12:16:27;48.47;;;24.77;;
17347;SDS011;8791;50.876;4.342;2023-02-15T12:18:59;55.80;;;28.10;;
17347;SDS011;8791;50.876;4.342;2023-02-15T12:21:28;61.30;;;27.43;;
17347;SDS011;8791;50.876;4.342;2023-02-15T12:23:57;82.27;;;32.03;;
17347;SDS011;8791;50.876;4.342;2023-02-15T12:26:27;67.50;;;28.83;;
17347;SDS011;8791;50.876;4.342;2023-02-15T12:28:57;53.27;;;26.93;;
17347;SDS011;8791;50.876;4.342;2023-02-15T12:31:28;70.00;;;28.50;;
17347;SDS011;8791;50.876;4.342;2023-02-15T12:34:01;54.33;;;25.27;;
17347;SDS011;8791;50.876;4.342;2023-02-15T12:36:39;59.83;;;26.17;;
17347;SDS011;8791;50.876;4.342;2023-02-15T12:39:21;56.03;;;27.00;;
17347;SDS011;8791;50.876;4.342;2023-02-15T12:42:01;53.57;;;27.00;;
17347;SDS011;8791;50.876;4.342;2023-02-15T12:44:31;56.23;;;26.93;;
17347;SDS011;8791;50.876;4.342;2023-02-15T12:47:00;67.50;;;29.93;;
17347;SDS011;8791;50.876;4.342;2023-02-15T12:49:30;65.03;;;27.33;;
17347;SDS011;8791;50.876;4.342;2023-02-15T12:51:58;59.93;;;28.07;;
17347;SDS011;8791;50.876;4.342;2023-02-15T12:54:30;55.67;;;26.90;;
17347;SDS011;8791;50.876;4.342;2023-02-15T12:57:12;55.97;;;28.07;;
17347;SDS011;8791;50.876;4.342;2023-02-15T12:59:47;59.30;;;28.10;;
17347;SDS011;8791;50.876;4.342;2023-02-15T13:02:22;57.57;;;28.30;;
17347;SDS011;8791;50.876;4.342;2023-02-15T13:05:04;57.97;;;27.97;;
17347;SDS011;8791;50.876;4.342;2023-02-15T13:07:44;55.53;;;26.67;;
17347;SDS011;8791;50.876;4.342;2023-02-15T13:10:18;59.93;;;28.47;;
17347;SDS011;8791;50.876;4.342;2023-02-15T13:12:50;66.63;;;28.63;;
17347;SDS011;8791;50.876;4.342;2023-02-15T13:15:26;72.50;;;29.33;;
17347;SDS011;8791;50.876;4.342;2023-02-15T13:17:57;60.50;;;27.97;;
17347;SDS011;8791;50.876;4.342;2023-02-15T13:20:26;57.80;;;27.10;;
17347;SDS011;8791;50.876;4.342;2023-02-15T13:22:54;68.00;;;28.63;;
17347;SDS011;8791;50.876;4.342;2023-02-15T13:25:26;57.47;;;27.43;;
17347;SDS011;8791;50.876;4.342;2023-02-15T13:27:55;53.27;;;26.60;;
17347;SDS011;8791;50.876;4.342;2023-02-15T13:30:28;56.33;;;27.97;;
17347;SDS011;8791;50.876;4.342;2023-02-15T13:33:00;62.47;;;28.13;;
17347;SDS011;8791;50.876;4.342;2023-02-15T13:35:33;57.03;;;28.83;;
17347;SDS011;8791;50.876;4.342;2023-02-15T13:38:06;56.03;;;28.80;;
17347;SDS011;8791;50.876;4.342;2023-02-15T13:40:48;57.23;;;28.20;;
17347;SDS011;8791;50.876;4.342;2023-02-15T13:43:25;53.10;;;26.57;;
17347;SDS011;8791;50.876;4.342;2023-02-15T13:46:07;60.27;;;28.37;;
17347;SDS011;8791;50.876;4.342;2023-02-15T13:48:42;55.20;;;27.77;;
17347;SDS011;8791;50.876;4.342;2023-02-15T13:51:16;60.90;;;30.20;;
17347;SDS011;8791;50.876;4.342;2023-02-15T13:56:45;58.80;;;28.57;;
17347;SDS011;8791;50.876;4.342;2023-02-15T13:59:24;60.83;;;29.47;;
17347;SDS011;8791;50.876;4.342;2023-02-15T14:08:02;66.03;;;29.67;;
17347;SDS011;8791;50.876;4.342;2023-02-15T14:13:34;56.83;;;29.47;;
17347;SDS011;8791;50.876;4.342;2023-02-15T14:16:12;59.47;;;28.40;;
17347;SDS011;8791;50.876;4.342;2023-02-15T14:18:46;59.80;;;30.17;;
17347;SDS011;8791;50.876;4.342;2023-02-15T14:21:19;67.43;;;32.03;;
17347;SDS011;8791;50.876;4.342;2023-02-15T14:23:56;62.47;;;29.40;;
17347;SDS011;8791;50.876;4.342;2023-02-15T14:26:35;61.97;;;28.50;;
17347;SDS011;8791;50.876;4.342;2023-02-15T14:29:15;54.67;;;28.53;;
17347;SDS011;8791;50.876;4.342;2023-02-15T14:31:47;58.57;;;29.20;;
17347;SDS011;8791;50.876;4.342;2023-02-15T14:34:18;58.40;;;29.20;;
17347;SDS011;8791;50.876;4.342;2023-02-15T14:36:49;67.00;;;29.63;;
17347;SDS011;8791;50.876;4.342;2023-02-15T14:39:22;61.70;;;29.70;;
17347;SDS011;8791;50.876;4.342;2023-02-15T14:42:18;59.17;;;32.40;;
17347;SDS011;8791;50.876;4.342;2023-02-15T14:44:52;63.50;;;30.57;;
17347;SDS011;8791;50.876;4.342;2023-02-15T14:47:26;70.57;;;32.63;;
17347;SDS011;8791;50.876;4.342;2023-02-15T14:49:59;65.10;;;32.93;;
17347;SDS011;8791;50.876;4.342;2023-02-15T14:55:43;65.00;;;33.77;;
17347;SDS011;8791;50.876;4.342;2023-02-15T14:58:10;61.23;;;30.60;;
17347;SDS011;8791;50.876;4.342;2023-02-15T15:00:39;90.73;;;35.67;;
17347;SDS011;8791;50.876;4.342;2023-02-15T15:03:10;69.43;;;32.57;;
17347;SDS011;8791;50.876;4.342;2023-02-15T15:05:47;65.53;;;30.30;;
17347;SDS011;8791;50.876;4.342;2023-02-15T15:08:21;67.13;;;32.97;;
17347;SDS011;8791;50.876;4.342;2023-02-15T15:10:53;69.77;;;32.63;;
17347;SDS011;8791;50.876;4.342;2023-02-15T15:13:37;69.47;;;33.43;;
17347;SDS011;8791;50.876;4.342;2023-02-15T15:16:27;72.00;;;33.77;;
17347;SDS011;8791;50.876;4.342;2023-02-15T15:18:56;68.43;;;33.57;;
17347;SDS011;8791;50.876;4.342;2023-02-15T15:37:05;72.73;;;33.53;;
17347;SDS011;8791;50.876;4.342;2023-02-15T15:40:04;79.00;;;35.63;;
17347;SDS011;8791;50.876;4.342;2023-02-15T15:42:49;63.27;;;32.30;;
17347;SDS011;8791;50.876;4.342;2023-02-15T15:45:38;67.40;;;33.23;;
17347;SDS011;8791;50.876;4.342;2023-02-15T15:48:26;61.40;;;31.40;;